createdAt,value
2018-11-22T00:00:02.963Z,1011.49
2018-11-22T00:01:02.745Z,1011.52
2018-11-22T00:02:02.733Z,1011.46
2018-11-22T00:03:02.724Z,1011.47
2018-11-22T00:04:02.712Z,1011.47
2018-11-22T00:05:02.761Z,1011.47
2018-11-22T00:06:02.689Z,1011.49
2018-11-22T00:07:02.679Z,1011.51
2018-11-22T00:08:02.670Z,1011.49
2018-11-22T00:09:02.661Z,1011.47
2018-11-22T00:10:02.710Z,1011.48
2018-11-22T00:11:02.641Z,1011.52
2018-11-22T00:12:02.628Z,1011.52
2018-11-22T00:13:02.614Z,1011.56
2018-11-22T00:14:02.611Z,1011.51
2018-11-22T00:15:02.657Z,1011.52
2018-11-22T00:16:02.583Z,1011.55
2018-11-22T00:17:02.574Z,1011.54
2018-11-22T00:18:02.567Z,1011.56
2018-11-22T00:19:02.552Z,1011.57
2018-11-22T00:20:02.602Z,1011.58
2018-11-22T00:21:03.392Z,1011.58
2018-11-22T00:22:02.523Z,1011.60
2018-11-22T00:23:02.509Z,1011.60
2018-11-22T00:24:02.500Z,1011.61
2018-11-22T00:25:02.553Z,1011.59
2018-11-22T00:26:02.477Z,1011.57
2018-11-22T00:27:02.470Z,1011.62
2018-11-22T00:28:02.456Z,1011.62
2018-11-22T00:29:02.444Z,1011.63
2018-11-22T00:30:02.504Z,1011.60
2018-11-22T00:31:02.424Z,1011.60
2018-11-22T00:32:02.416Z,1011.65
2018-11-22T00:33:02.402Z,1011.63
2018-11-22T00:34:02.396Z,1011.66
2018-11-22T00:35:02.451Z,1011.68
2018-11-22T00:36:02.370Z,1011.69
2018-11-22T00:37:02.360Z,1011.67
2018-11-22T00:38:02.349Z,1011.70
2018-11-22T00:39:02.340Z,1011.72
2018-11-22T00:40:02.331Z,1011.69
2018-11-22T00:41:02.392Z,1011.69
2018-11-22T00:42:02.887Z,1011.75
2018-11-22T00:43:02.295Z,1011.80
2018-11-22T00:44:02.283Z,1011.75
2018-11-22T00:45:02.274Z,1011.77
2018-11-22T00:46:02.326Z,1011.74
2018-11-22T00:47:02.258Z,1011.70
2018-11-22T00:48:02.244Z,1011.67
2018-11-22T00:49:02.232Z,1011.66
2018-11-22T00:50:02.221Z,1011.66
2018-11-22T00:51:02.272Z,1011.68
2018-11-22T00:52:02.205Z,1011.66
2018-11-22T00:53:02.190Z,1011.69
2018-11-22T00:54:02.179Z,1011.68
2018-11-22T00:55:02.170Z,1011.68
2018-11-22T00:56:02.220Z,1011.72
2018-11-22T00:57:02.146Z,1011.73
2018-11-22T00:58:02.136Z,1011.69
2018-11-22T00:59:02.125Z,1011.66
2018-11-22T01:00:02.114Z,1011.67
2018-11-22T01:01:02.166Z,1011.73
2018-11-22T01:02:02.095Z,1011.70
2018-11-22T01:03:02.886Z,1011.69
2018-11-22T01:04:02.075Z,1011.77
2018-11-22T01:05:02.066Z,1011.80
2018-11-22T01:06:02.114Z,1011.81
2018-11-22T01:07:02.044Z,1011.82
2018-11-22T01:08:02.035Z,1011.75
2018-11-22T01:09:02.021Z,1011.73
2018-11-22T01:10:02.009Z,1011.72
2018-11-22T01:11:02.069Z,1011.73
2018-11-22T01:12:01.991Z,1011.78
2018-11-22T01:13:01.977Z,1011.75
2018-11-22T01:14:01.969Z,1011.74
2018-11-22T01:15:01.964Z,1011.75
2018-11-22T01:16:02.450Z,1011.80
2018-11-22T01:17:01.936Z,1011.77
2018-11-22T01:18:01.926Z,1011.75
2018-11-22T01:19:01.914Z,1011.74
2018-11-22T01:20:01.902Z,1011.69
2018-11-22T01:21:01.966Z,1011.79
2018-11-22T01:22:01.894Z,1011.75
2018-11-22T01:23:01.872Z,1011.74
2018-11-22T01:24:02.379Z,1011.78
2018-11-22T01:25:01.848Z,1011.80
2018-11-22T01:26:01.909Z,1011.73
2018-11-22T01:27:01.830Z,1011.76
2018-11-22T01:28:01.816Z,1011.77
2018-11-22T01:29:01.807Z,1011.83
2018-11-22T01:30:01.795Z,1011.82
2018-11-22T01:31:01.844Z,1011.79
2018-11-22T01:32:01.774Z,1011.77
2018-11-22T01:33:01.767Z,1011.75
2018-11-22T01:34:01.753Z,1011.75
2018-11-22T01:35:01.746Z,1011.76
2018-11-22T01:36:01.793Z,1011.73
2018-11-22T01:37:01.721Z,1011.75
2018-11-22T01:38:01.709Z,1011.73
2018-11-22T01:39:01.702Z,1011.74
2018-11-22T01:40:01.693Z,1011.70
2018-11-22T01:41:01.743Z,1011.71
2018-11-22T01:42:01.675Z,1011.75
2018-11-22T01:43:01.659Z,1011.82
2018-11-22T01:44:01.646Z,1011.76
2018-11-22T01:45:02.373Z,1011.73
2018-11-22T01:46:01.689Z,1011.76
2018-11-22T01:47:01.617Z,1011.75
2018-11-22T01:48:01.604Z,1011.69
2018-11-22T01:49:01.592Z,1011.68
2018-11-22T01:50:01.586Z,1011.66
2018-11-22T01:51:01.633Z,1011.66
2018-11-22T01:52:01.562Z,1011.69
2018-11-22T01:53:01.552Z,1011.73
2018-11-22T01:54:01.544Z,1011.72
2018-11-22T01:55:01.530Z,1011.72
2018-11-22T01:56:01.596Z,1011.72
2018-11-22T01:57:01.508Z,1011.72
2018-11-22T01:58:01.499Z,1011.69
2018-11-22T01:59:01.485Z,1011.69
2018-11-22T02:00:01.478Z,1011.62
2018-11-22T02:01:01.464Z,1011.61
2018-11-22T02:02:01.516Z,1011.59
2018-11-22T02:03:01.442Z,1011.61
2018-11-22T02:04:01.435Z,1011.62
2018-11-22T02:05:01.423Z,1011.62
2018-11-22T02:06:02.369Z,1011.63
2018-11-22T02:07:01.463Z,1011.58
2018-11-22T02:08:01.390Z,1011.63
2018-11-22T02:09:01.381Z,1011.65
2018-11-22T02:10:01.369Z,1011.59
2018-11-22T02:11:01.360Z,1011.54
2018-11-22T02:12:01.415Z,1011.61
2018-11-22T02:13:01.338Z,1011.53
2018-11-22T02:14:01.327Z,1011.54
2018-11-22T02:15:01.316Z,1011.56
2018-11-22T02:16:01.303Z,1011.57
2018-11-22T02:17:01.356Z,1011.56
2018-11-22T02:18:01.289Z,1011.53
2018-11-22T02:19:01.274Z,1011.54
2018-11-22T02:20:01.261Z,1011.57
2018-11-22T02:21:01.257Z,1011.56
2018-11-22T02:22:01.302Z,1011.58
2018-11-22T02:23:01.228Z,1011.58
2018-11-22T02:24:01.221Z,1011.55
2018-11-22T02:25:01.208Z,1011.57
2018-11-22T02:26:01.204Z,1011.65
2018-11-22T02:27:01.456Z,1011.58
2018-11-22T02:28:01.178Z,1011.58
2018-11-22T02:29:01.166Z,1011.57
2018-11-22T02:30:01.155Z,1011.58
2018-11-22T02:31:01.150Z,1011.57
2018-11-22T02:32:01.196Z,1011.55
2018-11-22T02:33:01.122Z,1011.53
2018-11-22T02:34:01.113Z,1011.52
2018-11-22T02:35:01.101Z,1011.55
2018-11-22T02:36:01.099Z,1011.52
2018-11-22T02:37:01.146Z,1011.46
2018-11-22T02:38:01.072Z,1011.51
2018-11-22T02:39:01.060Z,1011.57
2018-11-22T02:40:01.047Z,1011.49
2018-11-22T02:41:01.057Z,1011.51
2018-11-22T02:42:01.088Z,1011.50
2018-11-22T02:43:01.017Z,1011.53
2018-11-22T02:44:01.005Z,1011.52
2018-11-22T02:45:01.001Z,1011.57
2018-11-22T02:46:00.985Z,1011.53
2018-11-22T02:47:01.036Z,1011.58
2018-11-22T02:48:01.865Z,1011.58
2018-11-22T02:49:00.957Z,1011.53
2018-11-22T02:50:00.943Z,1011.49
2018-11-22T02:51:00.934Z,1011.49
2018-11-22T02:52:00.983Z,1011.44
2018-11-22T02:53:00.914Z,1011.45
2018-11-22T02:54:00.900Z,1011.51
2018-11-22T02:55:00.894Z,1011.47
2018-11-22T02:56:00.880Z,1011.49
2018-11-22T02:57:00.932Z,1011.49
2018-11-22T02:58:00.859Z,1011.53
2018-11-22T02:59:00.849Z,1011.48
2018-11-22T03:00:00.835Z,1011.48
2018-11-22T03:01:00.826Z,1011.50
2018-11-22T03:02:00.881Z,1011.55
2018-11-22T03:03:00.803Z,1011.48
2018-11-22T03:04:00.794Z,1011.50
2018-11-22T03:05:00.782Z,1011.49
2018-11-22T03:06:00.773Z,1011.51
2018-11-22T03:07:00.824Z,1011.50
2018-11-22T03:08:00.754Z,1011.53
2018-11-22T03:09:01.361Z,1011.50
2018-11-22T03:10:00.731Z,1011.53
2018-11-22T03:11:00.722Z,1011.59
2018-11-22T03:12:00.769Z,1011.54
2018-11-22T03:13:00.699Z,1011.50
2018-11-22T03:14:00.692Z,1011.52
2018-11-22T03:15:00.683Z,1011.50
2018-11-22T03:16:00.668Z,1011.55
2018-11-22T03:17:00.930Z,1011.55
2018-11-22T03:18:00.645Z,1011.50
2018-11-22T03:19:00.636Z,1011.54
2018-11-22T03:20:00.626Z,1011.53
2018-11-22T03:21:00.613Z,1011.61
2018-11-22T03:22:00.661Z,1011.58
2018-11-22T03:23:00.592Z,1011.50
2018-11-22T03:24:00.579Z,1011.52
2018-11-22T03:25:00.570Z,1011.51
2018-11-22T03:26:00.558Z,1011.51
2018-11-22T03:27:00.609Z,1011.49
2018-11-22T03:28:00.540Z,1011.50
2018-11-22T03:29:00.528Z,1011.50
2018-11-22T03:30:01.360Z,1011.47
2018-11-22T03:31:00.505Z,1011.48
2018-11-22T03:32:00.562Z,1011.47
2018-11-22T03:33:00.484Z,1011.47
2018-11-22T03:34:00.473Z,1011.44
2018-11-22T03:35:00.463Z,1011.46
2018-11-22T03:36:00.451Z,1011.40
2018-11-22T03:37:00.443Z,1011.50
2018-11-22T03:38:00.492Z,1011.47
2018-11-22T03:39:00.424Z,1011.48
2018-11-22T03:40:00.409Z,1011.46
2018-11-22T03:41:00.400Z,1011.43
2018-11-22T03:42:00.386Z,1011.42
2018-11-22T03:43:00.446Z,1011.45
2018-11-22T03:44:00.369Z,1011.41
2018-11-22T03:45:00.368Z,1011.43
2018-11-22T03:46:00.352Z,1011.46
2018-11-22T03:47:00.335Z,1011.43
2018-11-22T03:48:00.387Z,1011.40
2018-11-22T03:49:00.319Z,1011.37
2018-11-22T03:50:00.308Z,1011.41
2018-11-22T03:51:00.852Z,1011.47
2018-11-22T03:52:00.281Z,1011.46
2018-11-22T03:53:00.341Z,1011.43
2018-11-22T03:54:00.260Z,1011.45
2018-11-22T03:55:00.248Z,1011.44
2018-11-22T03:56:00.243Z,1011.38
2018-11-22T03:57:00.235Z,1011.35
2018-11-22T03:58:00.280Z,1011.39
2018-11-22T03:59:00.210Z,1011.41
2018-11-22T04:00:00.208Z,1011.41
2018-11-22T04:01:00.205Z,1011.39
2018-11-22T04:02:00.177Z,1011.38
2018-11-22T04:03:00.226Z,1011.39
2018-11-22T04:04:00.162Z,1011.39
2018-11-22T04:05:00.145Z,1011.34
2018-11-22T04:06:00.134Z,1011.34
2018-11-22T04:07:00.126Z,1011.37
2018-11-22T04:08:00.178Z,1011.36
2018-11-22T04:09:00.103Z,1011.43
2018-11-22T04:10:00.097Z,1011.40
2018-11-22T04:11:00.083Z,1011.35
2018-11-22T04:12:00.852Z,1011.31
2018-11-22T04:13:00.122Z,1011.32
2018-11-22T04:14:00.051Z,1011.36
2018-11-22T04:15:00.043Z,1011.36
2018-11-22T04:16:00.033Z,1011.36
2018-11-22T04:17:00.032Z,1011.34
2018-11-22T04:18:00.073Z,1011.31
2018-11-22T04:18:59.995Z,1011.33
2018-11-22T04:19:59.986Z,1011.39
2018-11-22T04:20:59.975Z,1011.38
2018-11-22T04:21:59.968Z,1011.36
2018-11-22T04:23:00.018Z,1011.37
2018-11-22T04:23:59.942Z,1011.36
2018-11-22T04:24:59.931Z,1011.42
2018-11-22T04:25:59.923Z,1011.36
2018-11-22T04:27:01.072Z,1011.43
2018-11-22T04:27:59.966Z,1011.41
2018-11-22T04:28:59.891Z,1011.38
2018-11-22T04:29:59.882Z,1011.37
2018-11-22T04:30:59.867Z,1011.38
2018-11-22T04:31:59.860Z,1011.39
2018-11-22T04:33:00.418Z,1011.35
2018-11-22T04:33:59.837Z,1011.47
2018-11-22T04:34:59.831Z,1011.36
2018-11-22T04:35:59.817Z,1011.45
2018-11-22T04:36:59.805Z,1011.41
2018-11-22T04:37:59.856Z,1011.40
2018-11-22T04:38:59.783Z,1011.39
2018-11-22T04:39:59.772Z,1011.41
2018-11-22T04:40:59.760Z,1011.46
2018-11-22T04:41:59.751Z,1011.44
2018-11-22T04:42:59.811Z,1011.41
2018-11-22T04:43:59.733Z,1011.45
2018-11-22T04:44:59.721Z,1011.46
2018-11-22T04:45:59.711Z,1011.46
2018-11-22T04:46:59.697Z,1011.46
2018-11-22T04:47:59.751Z,1011.47
2018-11-22T04:48:59.676Z,1011.46
2018-11-22T04:49:59.667Z,1011.45
2018-11-22T04:50:59.655Z,1011.49
2018-11-22T04:51:59.649Z,1011.49
2018-11-22T04:52:59.705Z,1011.53
2018-11-22T04:54:00.343Z,1011.50
2018-11-22T04:54:59.617Z,1011.48
2018-11-22T04:55:59.604Z,1011.46
2018-11-22T04:56:59.593Z,1011.45
2018-11-22T04:57:59.648Z,1011.44
2018-11-22T04:58:59.572Z,1011.43
2018-11-22T04:59:59.560Z,1011.47
2018-11-22T05:00:59.554Z,1011.43
2018-11-22T05:02:00.460Z,1011.45
2018-11-22T05:02:59.602Z,1011.45
2018-11-22T05:03:59.522Z,1011.42
2018-11-22T05:04:59.509Z,1011.39
2018-11-22T05:05:59.499Z,1011.43
2018-11-22T05:06:59.486Z,1011.40
2018-11-22T05:07:59.476Z,1011.41
2018-11-22T05:08:59.528Z,1011.42
2018-11-22T05:09:59.461Z,1011.36
2018-11-22T05:10:59.451Z,1011.36
2018-11-22T05:11:59.435Z,1011.38
2018-11-22T05:12:59.425Z,1011.40
2018-11-22T05:13:59.477Z,1011.42
2018-11-22T05:15:00.343Z,1011.42
2018-11-22T05:15:59.389Z,1011.40
2018-11-22T05:16:59.382Z,1011.40
2018-11-22T05:18:00.340Z,1011.45
2018-11-22T05:18:59.430Z,1011.42
2018-11-22T05:19:59.351Z,1011.40
2018-11-22T05:20:59.340Z,1011.36
2018-11-22T05:21:59.330Z,1011.39
2018-11-22T05:22:59.329Z,1011.37
2018-11-22T05:23:59.403Z,1011.36
2018-11-22T05:24:59.300Z,1011.35
2018-11-22T05:25:59.285Z,1011.35
2018-11-22T05:26:59.280Z,1011.30
2018-11-22T05:27:59.265Z,1011.31
2018-11-22T05:28:59.313Z,1011.30
2018-11-22T05:29:59.244Z,1011.30
2018-11-22T05:30:59.234Z,1011.25
2018-11-22T05:31:59.223Z,1011.29
2018-11-22T05:32:59.214Z,1011.32
2018-11-22T05:33:59.266Z,1011.35
2018-11-22T05:34:59.193Z,1011.35
2018-11-22T05:35:59.847Z,1011.37
2018-11-22T05:36:59.178Z,1011.34
2018-11-22T05:37:59.160Z,1011.35
2018-11-22T05:38:59.213Z,1011.38
2018-11-22T05:39:59.144Z,1011.40
2018-11-22T05:40:59.160Z,1011.37
2018-11-22T05:41:59.158Z,1011.29
2018-11-22T05:42:59.108Z,1011.31
2018-11-22T05:43:59.164Z,1011.36
2018-11-22T05:44:59.084Z,1011.30
2018-11-22T05:45:59.080Z,1011.29
2018-11-22T05:47:02.629Z,1011.29
2018-11-22T05:47:59.061Z,1011.34
2018-11-22T05:48:59.105Z,1011.30
2018-11-22T05:49:59.040Z,1011.33
2018-11-22T05:50:59.028Z,1011.36
2018-11-22T05:51:59.008Z,1011.38
2018-11-22T05:52:58.999Z,1011.36
2018-11-22T05:53:59.057Z,1011.38
2018-11-22T05:54:58.984Z,1011.42
2018-11-22T05:55:58.970Z,1011.39
2018-11-22T05:56:59.851Z,1011.41
2018-11-22T05:57:58.946Z,1011.37
2018-11-22T05:58:59.000Z,1011.37
2018-11-22T05:59:58.930Z,1011.38
2018-11-22T06:00:58.916Z,1011.34
2018-11-22T06:01:58.907Z,1011.39
2018-11-22T06:02:58.898Z,1011.40
2018-11-22T06:03:58.946Z,1011.45
2018-11-22T06:04:58.879Z,1011.47
2018-11-22T06:05:58.862Z,1011.41
2018-11-22T06:06:58.854Z,1011.39
2018-11-22T06:07:58.841Z,1011.35
2018-11-22T06:08:58.909Z,1011.39
2018-11-22T06:09:58.823Z,1011.32
2018-11-22T06:10:58.818Z,1011.33
2018-11-22T06:11:58.800Z,1011.32
2018-11-22T06:12:58.788Z,1011.38
2018-11-22T06:13:58.848Z,1011.35
2018-11-22T06:14:58.765Z,1011.34
2018-11-22T06:15:58.755Z,1011.37
2018-11-22T06:16:58.747Z,1011.45
2018-11-22T06:17:59.336Z,1011.39
2018-11-22T06:18:58.819Z,1011.50
2018-11-22T06:19:58.721Z,1011.50
2018-11-22T06:20:58.709Z,1011.51
2018-11-22T06:21:58.692Z,1011.54
2018-11-22T06:22:58.683Z,1011.52
2018-11-22T06:25:08.612Z,1011.54
2018-11-22T06:26:08.507Z,1011.49
2018-11-22T06:27:08.491Z,1011.50
2018-11-22T06:28:08.485Z,1011.48
2018-11-22T06:29:08.532Z,1011.49
2018-11-22T06:30:08.461Z,1011.49
2018-11-22T06:31:08.449Z,1011.47
2018-11-22T06:32:08.440Z,1011.52
2018-11-22T06:33:08.429Z,1011.53
2018-11-22T06:34:08.475Z,1011.49
2018-11-22T06:35:08.404Z,1011.48
2018-11-22T06:36:08.396Z,1011.53
2018-11-22T06:37:08.384Z,1011.55
2018-11-22T06:38:08.375Z,1011.59
2018-11-22T06:39:08.424Z,1011.58
2018-11-22T06:40:08.354Z,1011.58
2018-11-22T06:41:08.342Z,1011.60
2018-11-22T06:42:08.334Z,1011.55
2018-11-22T06:43:08.321Z,1011.54
2018-11-22T06:44:08.371Z,1011.55
2018-11-22T06:45:08.298Z,1011.60
2018-11-22T06:46:09.147Z,1011.62
2018-11-22T06:47:08.281Z,1011.63
2018-11-22T06:48:08.267Z,1011.52
2018-11-22T06:49:08.325Z,1011.57
2018-11-22T06:50:08.247Z,1011.58
2018-11-22T06:51:08.235Z,1011.62
2018-11-22T06:52:08.223Z,1011.55
2018-11-22T06:53:08.225Z,1011.56
2018-11-22T06:54:08.279Z,1011.54
2018-11-22T06:55:08.191Z,1011.59
2018-11-22T06:56:08.184Z,1011.55
2018-11-22T06:57:08.172Z,1011.58
2018-11-22T06:58:08.161Z,1011.55
2018-11-22T06:59:08.152Z,1011.56
2018-11-22T07:00:08.206Z,1011.56
2018-11-22T07:01:08.128Z,1011.54
2018-11-22T07:02:08.116Z,1011.56
2018-11-22T07:03:08.110Z,1011.53
2018-11-22T07:04:08.098Z,1011.55
2018-11-22T07:05:08.144Z,1011.61
2018-11-22T07:06:08.079Z,1011.59
2018-11-22T07:07:08.617Z,1011.61
2018-11-22T07:08:08.054Z,1011.59
2018-11-22T07:09:08.042Z,1011.61
2018-11-22T07:10:08.094Z,1011.58
2018-11-22T07:11:08.023Z,1011.56
2018-11-22T07:12:08.012Z,1011.54
2018-11-22T07:13:08.003Z,1011.55
2018-11-22T07:14:07.990Z,1011.52
2018-11-22T07:15:08.048Z,1011.58
2018-11-22T07:16:07.974Z,1011.61
2018-11-22T07:17:07.961Z,1011.57
2018-11-22T07:18:07.953Z,1011.60
2018-11-22T07:19:07.937Z,1011.56
2018-11-22T07:20:07.989Z,1011.58
2018-11-22T07:21:07.916Z,1011.55
2018-11-22T07:22:07.904Z,1011.56
2018-11-22T07:23:07.892Z,1011.55
2018-11-22T07:24:07.884Z,1011.57
2018-11-22T07:25:07.933Z,1011.61
2018-11-22T07:26:07.862Z,1011.56
2018-11-22T07:27:07.854Z,1011.57
2018-11-22T07:28:08.605Z,1011.62
2018-11-22T07:29:07.829Z,1011.57
2018-11-22T07:30:07.881Z,1011.61
2018-11-22T07:31:07.814Z,1011.65
2018-11-22T07:32:07.797Z,1011.65
2018-11-22T07:33:07.787Z,1011.64
2018-11-22T07:34:07.777Z,1011.63
2018-11-22T07:35:07.826Z,1011.66
2018-11-22T07:36:07.756Z,1011.63
2018-11-22T07:37:07.746Z,1011.67
2018-11-22T07:38:07.740Z,1011.68
2018-11-22T07:39:07.723Z,1011.70
2018-11-22T07:40:07.775Z,1011.68
2018-11-22T07:41:07.704Z,1011.70
2018-11-22T07:42:07.699Z,1011.64
2018-11-22T07:43:07.686Z,1011.68
2018-11-22T07:44:07.672Z,1011.72
2018-11-22T07:45:07.723Z,1011.67
2018-11-22T07:46:07.651Z,1011.70
2018-11-22T07:47:07.648Z,1011.74
2018-11-22T07:48:07.639Z,1011.77
2018-11-22T07:49:08.604Z,1011.76
2018-11-22T07:50:07.670Z,1011.74
2018-11-22T07:51:07.601Z,1011.72
2018-11-22T07:52:07.593Z,1011.70
2018-11-22T07:53:07.581Z,1011.70
2018-11-22T07:54:07.567Z,1011.70
2018-11-22T07:55:07.616Z,1011.66
2018-11-22T07:56:07.546Z,1011.66
2018-11-22T07:57:07.538Z,1011.65
2018-11-22T07:58:07.528Z,1011.65
2018-11-22T07:59:07.514Z,1011.64
2018-11-22T08:00:07.563Z,1011.66
2018-11-22T08:01:07.490Z,1011.69
2018-11-22T08:02:07.478Z,1011.66
2018-11-22T08:03:07.470Z,1011.71
2018-11-22T08:04:07.460Z,1011.70
2018-11-22T08:05:07.511Z,1011.73
2018-11-22T08:06:07.439Z,1011.67
2018-11-22T08:07:07.427Z,1011.71
2018-11-22T08:08:07.415Z,1011.72
2018-11-22T08:09:07.407Z,1011.66
2018-11-22T08:10:07.668Z,1011.70
2018-11-22T08:11:07.407Z,1011.62
2018-11-22T08:12:12.177Z,1011.64
2018-11-22T08:13:07.365Z,1011.62
2018-11-22T08:14:07.354Z,1011.55
2018-11-22T08:15:07.405Z,1011.58
2018-11-22T08:16:07.332Z,1011.60
2018-11-22T08:17:07.323Z,1011.54
2018-11-22T08:18:07.314Z,1011.60
2018-11-22T08:19:08.102Z,1011.50
2018-11-22T08:20:07.351Z,1011.49
2018-11-22T08:21:07.278Z,1011.50
2018-11-22T08:22:07.267Z,1011.54
2018-11-22T08:23:07.258Z,1011.49
2018-11-22T08:24:07.248Z,1011.51
2018-11-22T08:25:07.311Z,1011.49
2018-11-22T08:26:07.235Z,1011.53
2018-11-22T08:27:07.216Z,1011.50
2018-11-22T08:28:07.205Z,1011.52
2018-11-22T08:29:07.194Z,1011.56
2018-11-22T08:30:07.187Z,1011.54
2018-11-22T08:31:07.663Z,1011.62
2018-11-22T08:32:07.172Z,1011.63
2018-11-22T08:33:07.156Z,1011.59
2018-11-22T08:34:07.147Z,1011.57
2018-11-22T08:35:07.135Z,1011.57
2018-11-22T08:36:07.181Z,1011.53
2018-11-22T08:37:07.111Z,1011.56
2018-11-22T08:38:07.100Z,1011.59
2018-11-22T08:39:07.093Z,1011.58
2018-11-22T08:40:07.079Z,1011.64
2018-11-22T08:41:07.124Z,1011.61
2018-11-22T08:42:07.058Z,1011.56
2018-11-22T08:43:07.046Z,1011.55
2018-11-22T08:44:07.034Z,1011.54
2018-11-22T08:45:07.021Z,1011.61
2018-11-22T08:46:07.077Z,1011.59
2018-11-22T08:47:11.968Z,1011.55
2018-11-22T08:48:06.992Z,1011.56
2018-11-22T08:49:06.983Z,1011.57
2018-11-22T08:50:06.974Z,1011.58
2018-11-22T08:51:07.020Z,1011.56
2018-11-22T08:52:07.590Z,1011.59
2018-11-22T08:53:06.938Z,1011.61
2018-11-22T08:54:06.930Z,1011.63
2018-11-22T08:55:06.918Z,1011.67
2018-11-22T08:56:06.969Z,1011.68
2018-11-22T08:57:06.897Z,1011.62
2018-11-22T08:58:06.886Z,1011.64
2018-11-22T08:59:06.877Z,1011.63
2018-11-22T09:00:06.864Z,1011.67
2018-11-22T09:01:06.916Z,1011.72
2018-11-22T09:02:06.840Z,1011.67
2018-11-22T09:03:06.828Z,1011.60
2018-11-22T09:04:06.822Z,1011.58
2018-11-22T09:05:06.810Z,1011.61
2018-11-22T09:06:06.859Z,1011.62
2018-11-22T09:07:06.786Z,1011.64
2018-11-22T09:08:06.777Z,1011.64
2018-11-22T09:09:06.766Z,1011.65
2018-11-22T09:10:06.756Z,1011.75
2018-11-22T09:11:06.806Z,1011.72
2018-11-22T09:12:06.736Z,1011.63
2018-11-22T09:13:07.588Z,1011.66
2018-11-22T09:14:06.712Z,1011.68
2018-11-22T09:15:06.705Z,1011.69
2018-11-22T09:16:06.752Z,1011.73
2018-11-22T09:17:06.679Z,1011.83
2018-11-22T09:18:06.667Z,1011.80
2018-11-22T09:19:06.659Z,1011.78
2018-11-22T09:20:06.649Z,1011.80
2018-11-22T09:21:06.704Z,1011.80
2018-11-22T09:22:06.625Z,1011.73
2018-11-22T09:23:06.621Z,1011.79
2018-11-22T09:24:06.605Z,1011.74
2018-11-22T09:25:06.603Z,1011.68
2018-11-22T09:26:06.644Z,1011.77
2018-11-22T09:27:06.575Z,1011.70
2018-11-22T09:28:06.562Z,1011.70
2018-11-22T09:29:06.551Z,1011.79
2018-11-22T09:30:06.539Z,1011.73
2018-11-22T09:31:06.589Z,1011.77
2018-11-22T09:32:06.532Z,1011.71
2018-11-22T09:33:06.507Z,1011.65
2018-11-22T09:34:07.116Z,1011.62
2018-11-22T09:35:06.485Z,1011.62
2018-11-22T09:36:06.534Z,1011.69
2018-11-22T09:37:06.460Z,1011.69
2018-11-22T09:38:06.452Z,1011.75
2018-11-22T09:39:06.439Z,1011.71
2018-11-22T09:40:06.434Z,1011.77
2018-11-22T09:41:06.477Z,1011.78
2018-11-22T09:42:06.419Z,1011.77
2018-11-22T09:43:06.400Z,1011.71
2018-11-22T09:44:06.386Z,1011.67
2018-11-22T09:45:06.374Z,1011.72
2018-11-22T09:46:06.434Z,1011.69
2018-11-22T09:47:06.357Z,1011.78
2018-11-22T09:48:06.347Z,1011.79
2018-11-22T09:49:06.336Z,1011.81
2018-11-22T09:50:06.324Z,1011.81
2018-11-22T09:51:06.313Z,1011.87
2018-11-22T09:52:06.370Z,1011.86
2018-11-22T09:53:06.292Z,1011.86
2018-11-22T09:54:06.282Z,1011.91
2018-11-22T09:55:07.081Z,1012.13
2018-11-22T09:56:06.259Z,1011.96
2018-11-22T09:57:06.316Z,1011.93
2018-11-22T09:58:06.238Z,1011.91
2018-11-22T09:59:06.229Z,1011.82
2018-11-22T10:00:06.212Z,1011.95
2018-11-22T10:01:06.210Z,1012.03
2018-11-22T10:02:06.259Z,1011.95
2018-11-22T10:03:06.204Z,1011.91
2018-11-22T10:04:06.174Z,1011.89
2018-11-22T10:05:06.302Z,1011.98
2018-11-22T10:06:06.154Z,1011.96
2018-11-22T10:07:06.210Z,1011.91
2018-11-22T10:08:06.136Z,1011.95
2018-11-22T10:09:06.124Z,1011.90
2018-11-22T10:10:06.110Z,1011.87
2018-11-22T10:11:06.100Z,1011.89
2018-11-22T10:12:06.149Z,1011.80
2018-11-22T10:13:06.079Z,1011.84
2018-11-22T10:14:06.065Z,1011.91
2018-11-22T10:15:06.056Z,1011.94
2018-11-22T10:16:06.580Z,1011.92
2018-11-22T10:17:06.162Z,1011.90
2018-11-22T10:18:06.021Z,1011.87
2018-11-22T10:19:06.011Z,1012.02
2018-11-22T10:20:06.579Z,1011.95
2018-11-22T10:21:05.989Z,1011.80
2018-11-22T10:22:06.070Z,1011.95
2018-11-22T10:23:05.969Z,1011.95
2018-11-22T10:24:06.014Z,1011.93
2018-11-22T10:25:05.945Z,1012.01
2018-11-22T10:26:05.934Z,1011.98
2018-11-22T10:27:05.986Z,1011.93
2018-11-22T10:28:05.919Z,1011.91
2018-11-22T10:29:05.904Z,1011.91
2018-11-22T10:30:05.917Z,1011.94
2018-11-22T10:31:05.880Z,1011.89
2018-11-22T10:32:05.932Z,1011.97
2018-11-22T10:33:05.864Z,1011.90
2018-11-22T10:34:05.848Z,1011.98
2018-11-22T10:35:05.889Z,1011.96
2018-11-22T10:36:05.827Z,1011.93
2018-11-22T10:37:06.149Z,1011.98
2018-11-22T10:38:05.816Z,1011.93
2018-11-22T10:39:05.815Z,1011.92
2018-11-22T10:40:05.788Z,1011.87
2018-11-22T10:41:05.773Z,1011.97
2018-11-22T10:42:05.825Z,1011.94
2018-11-22T10:44:05.743Z,1011.79
2018-11-22T10:45:05.731Z,1011.94
2018-11-22T10:46:05.721Z,1011.91
2018-11-22T10:47:05.778Z,1011.95
2018-11-22T10:48:05.716Z,1011.99
2018-11-22T10:49:05.691Z,1011.94
2018-11-22T10:50:05.679Z,1011.95
2018-11-22T10:51:05.668Z,1011.98
2018-11-22T10:52:05.727Z,1012.00
2018-11-22T10:53:05.646Z,1012.05
2018-11-22T10:54:05.637Z,1012.03
2018-11-22T10:55:05.626Z,1012.04
2018-11-22T10:56:05.613Z,1012.03
2018-11-22T10:57:05.665Z,1012.04
2018-11-22T10:58:06.578Z,1012.07
2018-11-22T10:59:05.583Z,1012.00
2018-11-22T11:00:05.572Z,1011.99
2018-11-22T11:01:05.560Z,1012.01
2018-11-22T11:02:05.620Z,1012.03
2018-11-22T11:03:05.541Z,1012.01
2018-11-22T11:04:05.525Z,1012.09
2018-11-22T11:05:05.518Z,1012.07
2018-11-22T11:06:05.507Z,1012.07
2018-11-22T11:07:05.564Z,1012.06
2018-11-22T11:08:05.486Z,1011.99
2018-11-22T11:09:05.474Z,1012.00
2018-11-22T11:10:05.462Z,1011.99
2018-11-22T11:11:05.452Z,1011.88
2018-11-22T11:12:05.442Z,1011.87
2018-11-22T11:13:05.491Z,1011.91
2018-11-22T11:14:05.428Z,1011.95
2018-11-22T11:15:05.417Z,1011.95
2018-11-22T11:16:05.400Z,1012.02
2018-11-22T11:17:05.396Z,1011.98
2018-11-22T11:18:05.442Z,1011.93
2018-11-22T11:19:06.517Z,1011.92
2018-11-22T11:20:05.410Z,1012.00
2018-11-22T11:22:05.356Z,1011.84
2018-11-22T11:23:05.392Z,1011.94
2018-11-22T11:24:05.319Z,1011.96
2018-11-22T11:25:05.495Z,1011.98
2018-11-22T11:26:05.491Z,1012.02
2018-11-22T11:27:05.282Z,1011.96
2018-11-22T11:28:05.370Z,1011.89
2018-11-22T11:29:06.245Z,1011.99
2018-11-22T11:30:05.248Z,1011.96
2018-11-22T11:31:05.244Z,1011.93
2018-11-22T11:32:05.238Z,1011.91
2018-11-22T11:33:05.301Z,1011.86
2018-11-22T11:34:05.240Z,1011.91
2018-11-22T11:35:05.197Z,1011.93
2018-11-22T11:36:05.182Z,1011.81
2018-11-22T11:37:05.173Z,1011.93
2018-11-22T11:38:05.239Z,1011.84
2018-11-22T11:39:05.153Z,1011.79
2018-11-22T11:40:06.073Z,1011.77
2018-11-22T11:41:05.134Z,1011.82
2018-11-22T11:42:05.120Z,1011.84
2018-11-22T11:43:05.172Z,1011.80
2018-11-22T11:44:05.099Z,1011.83
2018-11-22T11:45:05.090Z,1011.82
2018-11-22T11:46:05.078Z,1011.83
2018-11-22T11:47:05.066Z,1011.81
2018-11-22T11:48:05.118Z,1011.78
2018-11-22T11:49:05.046Z,1011.83
2018-11-22T11:50:05.037Z,1011.78
2018-11-22T11:51:05.022Z,1011.70
2018-11-22T11:52:05.012Z,1011.68
2018-11-22T11:53:05.062Z,1011.72
2018-11-22T11:54:04.991Z,1011.70
2018-11-22T11:55:04.982Z,1011.64
2018-11-22T11:56:04.969Z,1011.65
2018-11-22T11:57:05.007Z,1011.64
2018-11-22T11:58:05.032Z,1011.57
2018-11-22T11:59:04.936Z,1011.65
2018-11-22T12:00:04.943Z,1011.57
2018-11-22T12:01:05.572Z,1011.57
2018-11-22T12:02:04.906Z,1011.58
2018-11-22T12:03:04.963Z,1011.51
2018-11-22T12:04:04.882Z,1011.58
2018-11-22T12:05:04.895Z,1011.55
2018-11-22T12:06:04.867Z,1011.59
2018-11-22T12:07:04.858Z,1011.53
2018-11-22T12:08:04.954Z,1011.49